Historyczne dane pomiarowe

Dodano dane terminowe – wersja testowa.

Dane z okresu 1951-2019

Wersja bazy: 1.34 [2019-03-16, lista zmian], aktualizacja planowana na 2019-04-15

Dane meteo z obszaru Polski uzyskane na podstawie danych udostępnionych przez Instytut Meteorologii i Gospodarki Wodnej – Państwowy Instytut Badawczy.

 

Wybierz Datę:    

       

TemperaturaWilgotnośćWiatrCiśnienieOpadyŚniegCzas trwania zjawisk
 Stacja t tx tn tng RH VA  wxwx mslp ppp RRR   cm mm wxwxwxwxwxwxwx
1956-11-09 -7.8 -4.4-10.1- 77.5- 5.0 0.3---- 0.0-- 9---------
1956-11-08 -7.8 -2.0-12.6- 79.5- 0.7 1.0---- 0.0-- 10---------
1956-11-07 -1.6 0.6 -4.1- 88.5- 7.7 5.0---- 0.5-- 10---------
1956-11-06 -0.2 1.7 -1.6- 97.0- 6.7 7.7---- 6.1------------
1956-11-05 0.1 2.1 -7.1- 81.8- 5.0 3.3---- 1.1------------
1956-11-04 -3.2 3.6 -7.1- 95.8- 0.0 0.3---- 0.0------------
1956-11-03 -0.7 2.7 -2.6- 83.0- 4.7 1.3---- 0.0------------
1956-11-02 1.2 6.3 -5.1-100.0- 5.3 1.0---- 0.0------------
1956-11-01 -3.9 6.6-10.4- 90.8- 0.7 1.7---- 0.0------------
1956-10-31 -5.6 3.9 -8.1- 91.0- 5.0 2.7---- 0.0------------
1956-10-30 4.6 7.7 2.6- 89.3- 7.3 1.0---- 0.0------------
1956-10-29 5.7 9.2 4.2- 76.5- 6.3 4.7---- 0.5------------
1956-10-28 9.7 14.9 5.9- 78.5- 5.3 1.7---- 4.2------------
1956-10-27 11.0 17.8 3.4- 79.0- 7.0 0.0---- 0.0------------
1956-10-26 10.2 17.0 0.9- 81.8- 2.3 2.7---- 0.0------------
1956-10-25 10.3 17.5 2.4- 76.5- 0.0 1.7---- 0.0------------
1956-10-24 7.5 12.9 3.9- 94.0- 8.0 0.0---- 0.0------------
1956-10-23 7.2 16.7 1.9- 90.5- 3.3 1.0---- 0.0------------
1956-10-22 9.4 17.5 4.0- 87.3- 4.0 1.0---- 0.0------------
1956-10-21 9.6 15.1 6.4- 93.5- 7.3 1.0---- 0.0------------
1956-10-20 10.5 12.1 8.9- 87.8- 7.7 1.0---- 1.1------------
1956-10-19 10.3 13.1 8.4- 69.5- 8.0 1.7---- 0.0------------
1956-10-18 8.6 13.9 -0.1- 67.5- 4.3 2.7---- 0.0------------
1956-10-17 3.9 13.1 -2.6- 78.3- 0.0 1.0---- 0.0------------
1956-10-16 3.1 10.1 -3.1- 88.0- 5.0 1.0---- 0.0------------
1956-10-15 2.2 10.6 -2.8- 89.0- 5.0 1.7---- 0.0------------
1956-10-14 7.0 11.1 2.9- 75.3- 5.0 12.3---- 1.2------------
1956-10-13 8.0 10.1 3.9- 76.3- 8.0 3.7---- 1.2------------
1956-10-12 6.0 10.1 0.6- 79.8- 6.7 1.0---- 0.0------------
1956-10-11 2.2 7.9 -2.1- 84.3- 5.3 1.0---- 0.0------------
1956-10-10 5.4 7.9 -0.6- 69.3- 6.7 5.7---- 0.0------------
1956-10-09 2.0 11.1 -1.1- 91.8- 4.3 1.0---- 0.0------------
1956-10-08 3.6 11.1 -0.6- 84.0- 4.3 1.7---- 0.0------------
1956-10-07 5.0 9.6 2.9- 82.0- 6.7 6.0---- 0.5------------
1956-10-06 7.2 13.7 1.4- 87.8- 8.0 1.7---- 18.5------------
1956-10-05 11.4 15.5 7.4- 77.5- 6.0 1.0---- 3.7------------
1956-10-04 11.2 17.0 8.9- 95.0- 8.0 0.0---- 0.5------------
1956-10-03 18.5 23.2 16.3- 66.0- 6.7 4.0---- 1.0------------
1956-10-02 18.6 24.1 9.4- 63.5- 0.3 3.0---- 0.0------------
1956-10-01 15.5 23.4 9.4- 78.8- 1.7 3.3---- 0.0------------
1956-09-30 15.5 23.5 10.4- 88.5- 5.0 0.0---- 0.0------------
1956-09-29 16.6 20.0 11.4- 77.8- 5.7 4.0---- 0.0------------
1956-09-28 14.2 18.1 12.6- 90.3- 5.0 2.3---- 1.0------------
1956-09-27 16.1 22.6 3.4- 59.0- 6.3 2.0---- 0.0------------
1956-09-26 11.9 19.8 3.9- 80.3- 0.0 3.3---- 0.0------------
1956-09-25 10.1 19.2 2.9- 84.5- 1.3 1.0---- 0.0------------
1956-09-24 8.6 15.3 3.6- 82.0- 0.0 1.7---- 0.0------------
1956-09-23 10.8 18.6 1.9- 84.0- 0.0 0.0---- 0.0------------
1956-09-22 10.8 22.0 3.6- 85.0- 0.0 2.3---- 0.0------------
1956-09-21 10.2 19.4 4.4- 83.5- 0.0 2.0---- 0.0------------
1956-09-20 9.4 16.8 0.9- 74.8- 4.0 2.7---- 0.0------------
1956-09-19 6.0 15.1 0.9- 84.3- 4.7 0.7---- 0.0------------
1956-09-18 5.7 10.1 3.4- 96.0- 6.0 3.3---- 0.0------------
1956-09-17 8.2 13.6 6.9- 96.8- 7.3 1.7---- 6.5------------
1956-09-16 12.4 17.8 6.9- 97.3- 7.3 1.0---- 0.0------------
1956-09-15 12.0 16.8 5.4- 90.8- 7.3 1.0---- 0.0------------
1956-09-14 9.5 11.9 5.4- 81.3- 7.3 6.3---- 0.0------------
1956-09-13 8.0 12.9 5.9- 93.0- 7.0 4.7---- 10.7------------
1956-09-12 11.1 15.1 9.4- 96.5- 7.7 3.7---- 12.5------------
1956-09-11 15.3 20.6 12.4- 89.0- 7.3 2.7---- 8.5------------
159.0 ms

 

Źródłem pochodzenia danych jest Instytut Meteorologii i Gospodarki Wodnej – Państwowy Instytut Badawczy. Dane Instytutu Meteorologii i Gospodarki Wodnej – Państwowego Instytutu Badawczego zostały przetworzone.

Dane źródłowe można odnaleźć na stronie https://dane.imgw.pl